Terminal Aerodrome Forecast
Issued by NWS Sterling, VA

Current Version | Previous Version | Graphics & Text | Print | Product List | Glossary On
Versions: 1 2 3 4 5 6 7 8 9 10 11 12 13 14
114
FTUS41 KLWX 100524
TAFMRB
TAF
KMRB 100524Z 1006/1106 29010KT P6SM SCT150
     FM101800 29010G17KT P6SM SCT110
     FM110000 29005KT P6SM FEW150
     FM110500 00000KT P6SM BKN110=

USA.gov is the U.S. government's official web portal to all federal, state and local government web resources and services.